sensor_id;sensor_type;location;lat;lon;timestamp;temperature;humidity
20881;DHT22;10600;53.096;8.802;2023-01-26T00:00:42;-0.20;99.90
20881;DHT22;10600;53.096;8.802;2023-01-26T00:01:43;-0.20;99.90
20881;DHT22;10600;53.096;8.802;2023-01-26T00:02:44;-0.20;99.90
20881;DHT22;10600;53.096;8.802;2023-01-26T00:03:45;-0.20;99.90
20881;DHT22;10600;53.096;8.802;2023-01-26T00:04:46;-0.20;99.90
20881;DHT22;10600;53.096;8.802;2023-01-26T00:05:47;-0.20;99.90
20881;DHT22;10600;53.096;8.802;2023-01-26T00:06:47;-0.20;99.90
20881;DHT22;10600;53.096;8.802;2023-01-26T00:07:48;-0.20;99.90
20881;DHT22;10600;53.096;8.802;2023-01-26T00:08:55;-0.20;99.90
20881;DHT22;10600;53.096;8.802;2023-01-26T00:09:56;-0.20;99.90
20881;DHT22;10600;53.096;8.802;2023-01-26T00:11:02;-0.20;99.90
20881;DHT22;10600;53.096;8.802;2023-01-26T00:12:03;-0.20;99.90
20881;DHT22;10600;53.096;8.802;2023-01-26T00:13:06;-0.20;99.90
20881;DHT22;10600;53.096;8.802;2023-01-26T00:14:07;-0.20;99.90
20881;DHT22;10600;53.096;8.802;2023-01-26T00:15:08;-0.20;99.90
20881;DHT22;10600;53.096;8.802;2023-01-26T00:16:10;-0.20;99.90
20881;DHT22;10600;53.096;8.802;2023-01-26T00:17:11;-0.20;99.90
20881;DHT22;10600;53.096;8.802;2023-01-26T00:18:13;-0.20;99.90
20881;DHT22;10600;53.096;8.802;2023-01-26T00:19:14;-0.20;99.90
20881;DHT22;10600;53.096;8.802;2023-01-26T00:20:15;-0.20;99.90
20881;DHT22;10600;53.096;8.802;2023-01-26T00:21:20;-0.20;99.90
20881;DHT22;10600;53.096;8.802;2023-01-26T00:22:21;-0.20;99.90
20881;DHT22;10600;53.096;8.802;2023-01-26T00:23:22;-0.20;99.90
20881;DHT22;10600;53.096;8.802;2023-01-26T00:24:23;-0.20;99.90
20881;DHT22;10600;53.096;8.802;2023-01-26T00:25:24;-0.20;99.90
20881;DHT22;10600;53.096;8.802;2023-01-26T00:26:26;-0.20;99.90
20881;DHT22;10600;53.096;8.802;2023-01-26T00:27:27;-0.20;99.90
20881;DHT22;10600;53.096;8.802;2023-01-26T00:28:28;-0.20;99.90
20881;DHT22;10600;53.096;8.802;2023-01-26T00:29:28;-0.20;99.90
20881;DHT22;10600;53.096;8.802;2023-01-26T00:30:29;-0.20;99.90
20881;DHT22;10600;53.096;8.802;2023-01-26T00:31:29;-0.20;99.90
20881;DHT22;10600;53.096;8.802;2023-01-26T00:32:30;-0.20;99.90
20881;DHT22;10600;53.096;8.802;2023-01-26T00:33:31;-0.20;99.90
20881;DHT22;10600;53.096;8.802;2023-01-26T00:34:31;-0.20;99.90
20881;DHT22;10600;53.096;8.802;2023-01-26T00:35:32;-0.20;99.90
20881;DHT22;10600;53.096;8.802;2023-01-26T00:36:33;-0.20;99.90
20881;DHT22;10600;53.096;8.802;2023-01-26T00:37:35;-0.20;99.90
20881;DHT22;10600;53.096;8.802;2023-01-26T00:38:36;-0.20;99.90
20881;DHT22;10600;53.096;8.802;2023-01-26T00:39:37;-0.20;99.90
20881;DHT22;10600;53.096;8.802;2023-01-26T00:40:38;-0.20;99.90
20881;DHT22;10600;53.096;8.802;2023-01-26T00:41:39;-0.20;99.90
20881;DHT22;10600;53.096;8.802;2023-01-26T00:42:58;-0.20;99.90
20881;DHT22;10600;53.096;8.802;2023-01-26T00:43:59;-0.20;99.90
20881;DHT22;10600;53.096;8.802;2023-01-26T00:45:00;-0.20;99.90
20881;DHT22;10600;53.096;8.802;2023-01-26T00:46:01;-0.20;99.90
20881;DHT22;10600;53.096;8.802;2023-01-26T00:47:02;-0.20;99.90
20881;DHT22;10600;53.096;8.802;2023-01-26T00:48:02;-0.20;99.90
20881;DHT22;10600;53.096;8.802;2023-01-26T00:49:03;-0.20;99.90
20881;DHT22;10600;53.096;8.802;2023-01-26T00:50:04;-0.20;99.90
20881;DHT22;10600;53.096;8.802;2023-01-26T00:51:05;-0.20;99.90
20881;DHT22;10600;53.096;8.802;2023-01-26T00:52:06;-0.20;99.90
20881;DHT22;10600;53.096;8.802;2023-01-26T00:53:06;-0.20;99.90
20881;DHT22;10600;53.096;8.802;2023-01-26T00:54:07;-0.20;99.90
20881;DHT22;10600;53.096;8.802;2023-01-26T00:55:08;-0.20;99.90
20881;DHT22;10600;53.096;8.802;2023-01-26T00:56:08;-0.20;99.90
20881;DHT22;10600;53.096;8.802;2023-01-26T00:57:09;-0.20;99.90
20881;DHT22;10600;53.096;8.802;2023-01-26T00:58:10;-0.20;99.90
20881;DHT22;10600;53.096;8.802;2023-01-26T00:59:11;-0.20;99.90
20881;DHT22;10600;53.096;8.802;2023-01-26T01:00:12;-0.20;99.90
20881;DHT22;10600;53.096;8.802;2023-01-26T01:01:16;-0.20;99.90
20881;DHT22;10600;53.096;8.802;2023-01-26T01:02:16;-0.20;99.90
20881;DHT22;10600;53.096;8.802;2023-01-26T01:03:17;-0.20;99.90
20881;DHT22;10600;53.096;8.802;2023-01-26T01:04:17;-0.20;99.90
20881;DHT22;10600;53.096;8.802;2023-01-26T01:05:18;-0.20;99.90
20881;DHT22;10600;53.096;8.802;2023-01-26T01:06:19;-0.20;99.90
20881;DHT22;10600;53.096;8.802;2023-01-26T01:07:19;-0.20;99.90
20881;DHT22;10600;53.096;8.802;2023-01-26T01:08:20;-0.20;99.90
20881;DHT22;10600;53.096;8.802;2023-01-26T01:09:21;-0.20;99.90
20881;DHT22;10600;53.096;8.802;2023-01-26T01:10:22;-0.20;99.90
20881;DHT22;10600;53.096;8.802;2023-01-26T01:11:23;-0.20;99.90
20881;DHT22;10600;53.096;8.802;2023-01-26T01:12:23;-0.20;99.90
20881;DHT22;10600;53.096;8.802;2023-01-26T01:13:24;-0.20;99.90
20881;DHT22;10600;53.096;8.802;2023-01-26T01:14:24;-0.20;99.90
20881;DHT22;10600;53.096;8.802;2023-01-26T01:15:25;-0.20;99.90
20881;DHT22;10600;53.096;8.802;2023-01-26T01:16:26;-0.10;99.90
20881;DHT22;10600;53.096;8.802;2023-01-26T01:17:27;-0.10;99.90
20881;DHT22;10600;53.096;8.802;2023-01-26T01:18:28;-0.20;99.90
20881;DHT22;10600;53.096;8.802;2023-01-26T01:19:29;-0.20;99.90
20881;DHT22;10600;53.096;8.802;2023-01-26T01:20:29;-0.20;99.90
20881;DHT22;10600;53.096;8.802;2023-01-26T01:21:30;-0.20;99.90
20881;DHT22;10600;53.096;8.802;2023-01-26T01:22:33;-0.10;99.90
20881;DHT22;10600;53.096;8.802;2023-01-26T01:23:34;-0.10;99.90
20881;DHT22;10600;53.096;8.802;2023-01-26T01:24:35;-0.10;99.90
20881;DHT22;10600;53.096;8.802;2023-01-26T01:25:36;-0.10;99.90
20881;DHT22;10600;53.096;8.802;2023-01-26T01:26:37;-0.10;99.90
20881;DHT22;10600;53.096;8.802;2023-01-26T01:27:38;-0.10;99.90
20881;DHT22;10600;53.096;8.802;2023-01-26T01:28:39;-0.10;99.90
20881;DHT22;10600;53.096;8.802;2023-01-26T01:29:40;-0.10;99.90
20881;DHT22;10600;53.096;8.802;2023-01-26T01:30:40;-0.10;99.90
20881;DHT22;10600;53.096;8.802;2023-01-26T01:31:41;-0.10;99.90
20881;DHT22;10600;53.096;8.802;2023-01-26T01:32:42;-0.10;99.90
20881;DHT22;10600;53.096;8.802;2023-01-26T01:33:44;-0.10;99.90
20881;DHT22;10600;53.096;8.802;2023-01-26T01:34:47;-0.10;99.90
20881;DHT22;10600;53.096;8.802;2023-01-26T01:36:03;-0.10;99.90
20881;DHT22;10600;53.096;8.802;2023-01-26T01:37:03;-0.10;99.90
20881;DHT22;10600;53.096;8.802;2023-01-26T01:38:04;0.00;99.90
20881;DHT22;10600;53.096;8.802;2023-01-26T01:39:05;0.00;99.90
20881;DHT22;10600;53.096;8.802;2023-01-26T01:40:08;0.00;99.90
20881;DHT22;10600;53.096;8.802;2023-01-26T01:41:10;0.00;99.90
20881;DHT22;10600;53.096;8.802;2023-01-26T01:42:11;0.00;99.90
20881;DHT22;10600;53.096;8.802;2023-01-26T01:43:12;0.00;99.90
20881;DHT22;10600;53.096;8.802;2023-01-26T01:44:15;0.00;99.90
20881;DHT22;10600;53.096;8.802;2023-01-26T01:46:32;0.00;99.90
20881;DHT22;10600;53.096;8.802;2023-01-26T01:47:33;0.00;99.90
20881;DHT22;10600;53.096;8.802;2023-01-26T01:49:46;0.00;99.90
20881;DHT22;10600;53.096;8.802;2023-01-26T01:50:49;0.00;99.90
20881;DHT22;10600;53.096;8.802;2023-01-26T01:51:59;0.00;99.90
20881;DHT22;10600;53.096;8.802;2023-01-26T01:53:01;0.00;99.90
20881;DHT22;10600;53.096;8.802;2023-01-26T01:54:06;0.00;99.90
20881;DHT22;10600;53.096;8.802;2023-01-26T01:55:09;0.00;99.90
20881;DHT22;10600;53.096;8.802;2023-01-26T01:56:16;0.00;99.90
20881;DHT22;10600;53.096;8.802;2023-01-26T01:57:25;0.00;99.90
20881;DHT22;10600;53.096;8.802;2023-01-26T01:58:30;0.00;99.90
20881;DHT22;10600;53.096;8.802;2023-01-26T01:59:32;0.00;99.90
20881;DHT22;10600;53.096;8.802;2023-01-26T02:00:33;0.00;99.90
20881;DHT22;10600;53.096;8.802;2023-01-26T02:01:33;0.00;99.90
20881;DHT22;10600;53.096;8.802;2023-01-26T02:02:36;0.00;99.90
20881;DHT22;10600;53.096;8.802;2023-01-26T02:03:37;0.00;99.90
20881;DHT22;10600;53.096;8.802;2023-01-26T02:04:38;0.00;99.90
20881;DHT22;10600;53.096;8.802;2023-01-26T02:06:55;0.00;99.90
20881;DHT22;10600;53.096;8.802;2023-01-26T02:07:57;0.10;99.90
20881;DHT22;10600;53.096;8.802;2023-01-26T02:08:58;0.10;99.90
20881;DHT22;10600;53.096;8.802;2023-01-26T02:10:00;0.00;99.90
20881;DHT22;10600;53.096;8.802;2023-01-26T02:11:39;0.10;99.90
20881;DHT22;10600;53.096;8.802;2023-01-26T02:12:40;0.10;99.90
20881;DHT22;10600;53.096;8.802;2023-01-26T02:13:43;0.00;99.90
20881;DHT22;10600;53.096;8.802;2023-01-26T02:14:44;0.00;99.90
20881;DHT22;10600;53.096;8.802;2023-01-26T02:15:45;0.00;99.90
20881;DHT22;10600;53.096;8.802;2023-01-26T02:16:46;0.00;99.90
20881;DHT22;10600;53.096;8.802;2023-01-26T02:17:47;0.00;99.90
20881;DHT22;10600;53.096;8.802;2023-01-26T02:18:47;0.00;99.90
20881;DHT22;10600;53.096;8.802;2023-01-26T02:20:02;0.00;99.90
20881;DHT22;10600;53.096;8.802;2023-01-26T02:21:06;0.00;99.90
20881;DHT22;10600;53.096;8.802;2023-01-26T02:22:15;0.00;99.90
20881;DHT22;10600;53.096;8.802;2023-01-26T02:24:42;0.00;99.90
20881;DHT22;10600;53.096;8.802;2023-01-26T02:26:52;0.00;99.90
20881;DHT22;10600;53.096;8.802;2023-01-26T02:27:54;0.00;99.90
20881;DHT22;10600;53.096;8.802;2023-01-26T02:28:54;0.00;99.90
20881;DHT22;10600;53.096;8.802;2023-01-26T02:29:56;0.00;99.90
20881;DHT22;10600;53.096;8.802;2023-01-26T02:30:58;0.00;99.90
20881;DHT22;10600;53.096;8.802;2023-01-26T02:31:59;0.00;99.90
20881;DHT22;10600;53.096;8.802;2023-01-26T02:33:00;0.00;99.90
20881;DHT22;10600;53.096;8.802;2023-01-26T02:34:01;0.00;99.90
20881;DHT22;10600;53.096;8.802;2023-01-26T02:35:01;0.00;99.90
20881;DHT22;10600;53.096;8.802;2023-01-26T02:36:03;0.10;99.90
20881;DHT22;10600;53.096;8.802;2023-01-26T02:37:04;0.00;99.90
20881;DHT22;10600;53.096;8.802;2023-01-26T02:38:07;0.00;99.90
20881;DHT22;10600;53.096;8.802;2023-01-26T02:41:49;0.00;99.90
20881;DHT22;10600;53.096;8.802;2023-01-26T02:43:10;0.10;99.90
20881;DHT22;10600;53.096;8.802;2023-01-26T02:44:11;0.10;99.90
20881;DHT22;10600;53.096;8.802;2023-01-26T02:45:14;0.10;99.90
20881;DHT22;10600;53.096;8.802;2023-01-26T02:46:16;0.10;99.90
20881;DHT22;10600;53.096;8.802;2023-01-26T02:47:17;0.10;99.90
20881;DHT22;10600;53.096;8.802;2023-01-26T02:48:19;0.10;99.90
20881;DHT22;10600;53.096;8.802;2023-01-26T02:49:39;0.10;99.90
20881;DHT22;10600;53.096;8.802;2023-01-26T02:50:46;0.10;99.90
20881;DHT22;10600;53.096;8.802;2023-01-26T02:51:47;0.10;99.90
20881;DHT22;10600;53.096;8.802;2023-01-26T02:52:47;0.10;99.90
20881;DHT22;10600;53.096;8.802;2023-01-26T02:53:48;0.10;99.90
20881;DHT22;10600;53.096;8.802;2023-01-26T02:54:49;0.10;99.90
20881;DHT22;10600;53.096;8.802;2023-01-26T02:56:08;0.10;99.90
20881;DHT22;10600;53.096;8.802;2023-01-26T02:57:09;0.10;99.90
20881;DHT22;10600;53.096;8.802;2023-01-26T02:58:09;0.10;99.90
20881;DHT22;10600;53.096;8.802;2023-01-26T02:59:10;0.10;99.90
20881;DHT22;10600;53.096;8.802;2023-01-26T03:00:13;0.20;99.90
20881;DHT22;10600;53.096;8.802;2023-01-26T03:01:14;0.10;99.90
20881;DHT22;10600;53.096;8.802;2023-01-26T03:02:15;0.10;99.90
20881;DHT22;10600;53.096;8.802;2023-01-26T03:03:19;0.10;99.90
20881;DHT22;10600;53.096;8.802;2023-01-26T03:04:21;0.10;99.90
20881;DHT22;10600;53.096;8.802;2023-01-26T03:05:22;0.10;99.90
20881;DHT22;10600;53.096;8.802;2023-01-26T03:06:22;0.10;99.90
20881;DHT22;10600;53.096;8.802;2023-01-26T03:07:23;0.10;99.90
20881;DHT22;10600;53.096;8.802;2023-01-26T03:08:24;0.10;99.90
20881;DHT22;10600;53.096;8.802;2023-01-26T03:09:24;0.10;99.90
20881;DHT22;10600;53.096;8.802;2023-01-26T03:10:25;0.10;99.90
20881;DHT22;10600;53.096;8.802;2023-01-26T03:11:26;0.10;99.90
20881;DHT22;10600;53.096;8.802;2023-01-26T03:12:41;0.10;99.90
20881;DHT22;10600;53.096;8.802;2023-01-26T03:13:42;0.10;99.90
20881;DHT22;10600;53.096;8.802;2023-01-26T03:14:42;0.10;99.90
20881;DHT22;10600;53.096;8.802;2023-01-26T03:15:43;0.10;99.90
20881;DHT22;10600;53.096;8.802;2023-01-26T03:16:51;0.20;99.90
20881;DHT22;10600;53.096;8.802;2023-01-26T03:18:03;0.10;99.90
20881;DHT22;10600;53.096;8.802;2023-01-26T03:19:22;0.10;99.90
20881;DHT22;10600;53.096;8.802;2023-01-26T03:20:41;0.10;99.90
20881;DHT22;10600;53.096;8.802;2023-01-26T03:22:01;0.20;99.90
20881;DHT22;10600;53.096;8.802;2023-01-26T03:23:20;0.10;99.90
20881;DHT22;10600;53.096;8.802;2023-01-26T03:24:39;0.10;99.90
20881;DHT22;10600;53.096;8.802;2023-01-26T03:25:59;0.20;99.90
20881;DHT22;10600;53.096;8.802;2023-01-26T03:27:18;0.20;99.90
20881;DHT22;10600;53.096;8.802;2023-01-26T03:28:28;0.20;99.90
20881;DHT22;10600;53.096;8.802;2023-01-26T03:29:29;0.10;99.90
20881;DHT22;10600;53.096;8.802;2023-01-26T03:30:30;0.10;99.90
20881;DHT22;10600;53.096;8.802;2023-01-26T03:31:30;0.10;99.90
20881;DHT22;10600;53.096;8.802;2023-01-26T03:32:31;0.10;99.90
20881;DHT22;10600;53.096;8.802;2023-01-26T03:33:31;0.10;99.90
20881;DHT22;10600;53.096;8.802;2023-01-26T03:34:32;0.10;99.90
20881;DHT22;10600;53.096;8.802;2023-01-26T03:35:33;0.10;99.90
20881;DHT22;10600;53.096;8.802;2023-01-26T03:36:33;0.10;99.90
20881;DHT22;10600;53.096;8.802;2023-01-26T03:37:34;0.10;99.90
20881;DHT22;10600;53.096;8.802;2023-01-26T03:38:36;0.10;99.90
20881;DHT22;10600;53.096;8.802;2023-01-26T03:39:36;0.10;99.90
20881;DHT22;10600;53.096;8.802;2023-01-26T03:40:58;0.10;99.90
20881;DHT22;10600;53.096;8.802;2023-01-26T03:42:17;0.20;99.90
20881;DHT22;10600;53.096;8.802;2023-01-26T03:43:37;0.10;99.90
20881;DHT22;10600;53.096;8.802;2023-01-26T03:44:56;0.20;99.90
20881;DHT22;10600;53.096;8.802;2023-01-26T03:46:15;0.20;99.90
20881;DHT22;10600;53.096;8.802;2023-01-26T03:47:35;0.20;99.90
20881;DHT22;10600;53.096;8.802;2023-01-26T03:48:55;0.20;99.90
20881;DHT22;10600;53.096;8.802;2023-01-26T03:50:15;0.20;99.90
20881;DHT22;10600;53.096;8.802;2023-01-26T03:51:34;0.20;99.90
20881;DHT22;10600;53.096;8.802;2023-01-26T03:52:54;0.20;99.90
20881;DHT22;10600;53.096;8.802;2023-01-26T03:54:13;0.20;99.90
20881;DHT22;10600;53.096;8.802;2023-01-26T03:55:32;0.20;99.90
20881;DHT22;10600;53.096;8.802;2023-01-26T03:56:52;0.20;99.90
20881;DHT22;10600;53.096;8.802;2023-01-26T03:57:52;0.20;99.90
20881;DHT22;10600;53.096;8.802;2023-01-26T03:58:55;0.20;99.90
20881;DHT22;10600;53.096;8.802;2023-01-26T03:59:56;0.20;99.90
20881;DHT22;10600;53.096;8.802;2023-01-26T04:00:57;0.20;99.90
20881;DHT22;10600;53.096;8.802;2023-01-26T04:01:57;0.20;99.90
20881;DHT22;10600;53.096;8.802;2023-01-26T04:03:17;0.10;99.90
20881;DHT22;10600;53.096;8.802;2023-01-26T04:04:36;0.10;99.90
20881;DHT22;10600;53.096;8.802;2023-01-26T04:05:57;0.10;99.90
20881;DHT22;10600;53.096;8.802;2023-01-26T04:07:17;0.20;99.90
20881;DHT22;10600;53.096;8.802;2023-01-26T04:08:36;0.10;99.90
20881;DHT22;10600;53.096;8.802;2023-01-26T04:09:37;0.20;99.90
20881;DHT22;10600;53.096;8.802;2023-01-26T04:10:40;0.20;99.90
20881;DHT22;10600;53.096;8.802;2023-01-26T04:11:41;0.20;99.90
20881;DHT22;10600;53.096;8.802;2023-01-26T04:12:41;0.30;99.90
20881;DHT22;10600;53.096;8.802;2023-01-26T04:13:42;0.30;99.90
20881;DHT22;10600;53.096;8.802;2023-01-26T04:15:01;0.30;99.90
20881;DHT22;10600;53.096;8.802;2023-01-26T04:16:21;0.30;99.90
20881;DHT22;10600;53.096;8.802;2023-01-26T04:17:40;0.30;99.90
20881;DHT22;10600;53.096;8.802;2023-01-26T04:19:00;0.30;99.90
20881;DHT22;10600;53.096;8.802;2023-01-26T04:20:19;0.40;99.90
20881;DHT22;10600;53.096;8.802;2023-01-26T04:21:38;0.40;99.90
20881;DHT22;10600;53.096;8.802;2023-01-26T04:22:40;0.30;99.90
20881;DHT22;10600;53.096;8.802;2023-01-26T04:23:44;0.30;99.90
20881;DHT22;10600;53.096;8.802;2023-01-26T04:24:45;0.30;99.90
20881;DHT22;10600;53.096;8.802;2023-01-26T04:25:46;0.30;99.90
20881;DHT22;10600;53.096;8.802;2023-01-26T04:26:47;0.30;99.90
20881;DHT22;10600;53.096;8.802;2023-01-26T04:27:48;0.30;99.90
20881;DHT22;10600;53.096;8.802;2023-01-26T04:28:49;0.30;99.90
20881;DHT22;10600;53.096;8.802;2023-01-26T04:29:50;0.30;99.90
20881;DHT22;10600;53.096;8.802;2023-01-26T04:30:51;0.30;99.90
20881;DHT22;10600;53.096;8.802;2023-01-26T04:31:51;0.30;99.90
20881;DHT22;10600;53.096;8.802;2023-01-26T04:32:52;0.30;99.90
20881;DHT22;10600;53.096;8.802;2023-01-26T04:33:53;0.30;99.90
20881;DHT22;10600;53.096;8.802;2023-01-26T04:34:53;0.30;99.90
20881;DHT22;10600;53.096;8.802;2023-01-26T04:35:54;0.30;99.90
20881;DHT22;10600;53.096;8.802;2023-01-26T04:36:54;0.30;99.90
20881;DHT22;10600;53.096;8.802;2023-01-26T04:37:55;0.30;99.90
20881;DHT22;10600;53.096;8.802;2023-01-26T04:38:56;0.30;99.90
20881;DHT22;10600;53.096;8.802;2023-01-26T04:39:57;0.30;99.90
20881;DHT22;10600;53.096;8.802;2023-01-26T04:40:57;0.30;99.90
20881;DHT22;10600;53.096;8.802;2023-01-26T04:41:58;0.30;99.90
20881;DHT22;10600;53.096;8.802;2023-01-26T04:42:58;0.30;99.90
20881;DHT22;10600;53.096;8.802;2023-01-26T04:43:59;0.40;99.90
20881;DHT22;10600;53.096;8.802;2023-01-26T04:45:01;0.40;99.90
20881;DHT22;10600;53.096;8.802;2023-01-26T04:46:04;0.40;99.90
20881;DHT22;10600;53.096;8.802;2023-01-26T04:47:05;0.40;99.90
20881;DHT22;10600;53.096;8.802;2023-01-26T04:48:06;0.30;99.90
20881;DHT22;10600;53.096;8.802;2023-01-26T04:49:06;0.40;99.90
20881;DHT22;10600;53.096;8.802;2023-01-26T04:50:07;0.40;99.90
20881;DHT22;10600;53.096;8.802;2023-01-26T04:51:14;0.40;99.90
20881;DHT22;10600;53.096;8.802;2023-01-26T04:52:15;0.40;99.90
20881;DHT22;10600;53.096;8.802;2023-01-26T04:53:15;0.40;99.90
20881;DHT22;10600;53.096;8.802;2023-01-26T04:54:16;0.40;99.90
20881;DHT22;10600;53.096;8.802;2023-01-26T04:55:17;0.40;99.90
20881;DHT22;10600;53.096;8.802;2023-01-26T04:56:27;0.40;99.90
20881;DHT22;10600;53.096;8.802;2023-01-26T04:57:28;0.40;99.90
20881;DHT22;10600;53.096;8.802;2023-01-26T04:58:29;0.40;99.90
20881;DHT22;10600;53.096;8.802;2023-01-26T04:59:29;0.40;99.90
20881;DHT22;10600;53.096;8.802;2023-01-26T05:00:30;0.40;99.90
20881;DHT22;10600;53.096;8.802;2023-01-26T05:01:31;0.40;99.90
20881;DHT22;10600;53.096;8.802;2023-01-26T05:02:31;0.40;99.90
20881;DHT22;10600;53.096;8.802;2023-01-26T05:03:32;0.40;99.90
20881;DHT22;10600;53.096;8.802;2023-01-26T05:04:32;0.40;99.90
20881;DHT22;10600;53.096;8.802;2023-01-26T05:05:37;0.40;99.90
20881;DHT22;10600;53.096;8.802;2023-01-26T05:06:38;0.40;99.90
20881;DHT22;10600;53.096;8.802;2023-01-26T05:07:38;0.40;99.90
20881;DHT22;10600;53.096;8.802;2023-01-26T05:08:39;0.50;99.90
20881;DHT22;10600;53.096;8.802;2023-01-26T05:09:40;0.50;99.90
20881;DHT22;10600;53.096;8.802;2023-01-26T05:10:40;0.50;99.90
20881;DHT22;10600;53.096;8.802;2023-01-26T05:11:42;0.50;99.90
20881;DHT22;10600;53.096;8.802;2023-01-26T05:12:42;0.50;99.90
20881;DHT22;10600;53.096;8.802;2023-01-26T05:13:43;0.50;99.90
20881;DHT22;10600;53.096;8.802;2023-01-26T05:14:45;0.50;99.90
20881;DHT22;10600;53.096;8.802;2023-01-26T05:15:46;0.50;99.90
20881;DHT22;10600;53.096;8.802;2023-01-26T05:16:47;0.60;99.90
20881;DHT22;10600;53.096;8.802;2023-01-26T05:17:47;0.50;99.90
20881;DHT22;10600;53.096;8.802;2023-01-26T05:18:48;0.60;99.90
20881;DHT22;10600;53.096;8.802;2023-01-26T05:19:49;0.60;99.90
20881;DHT22;10600;53.096;8.802;2023-01-26T05:20:49;0.60;99.90
20881;DHT22;10600;53.096;8.802;2023-01-26T05:21:50;0.60;99.90
20881;DHT22;10600;53.096;8.802;2023-01-26T05:22:50;0.60;99.90
20881;DHT22;10600;53.096;8.802;2023-01-26T05:23:52;0.60;99.90
20881;DHT22;10600;53.096;8.802;2023-01-26T05:24:52;0.60;99.90
20881;DHT22;10600;53.096;8.802;2023-01-26T05:25:53;0.70;99.90
20881;DHT22;10600;53.096;8.802;2023-01-26T05:26:54;0.60;99.90
20881;DHT22;10600;53.096;8.802;2023-01-26T05:28:14;0.70;99.90
20881;DHT22;10600;53.096;8.802;2023-01-26T05:29:15;0.70;99.90
20881;DHT22;10600;53.096;8.802;2023-01-26T05:30:19;0.70;99.90
20881;DHT22;10600;53.096;8.802;2023-01-26T05:31:19;0.70;99.90
20881;DHT22;10600;53.096;8.802;2023-01-26T05:32:20;0.70;99.90
20881;DHT22;10600;53.096;8.802;2023-01-26T05:33:21;0.70;99.90
20881;DHT22;10600;53.096;8.802;2023-01-26T05:34:22;0.70;99.90
20881;DHT22;10600;53.096;8.802;2023-01-26T05:35:23;0.70;99.90
20881;DHT22;10600;53.096;8.802;2023-01-26T05:36:23;0.70;99.90
20881;DHT22;10600;53.096;8.802;2023-01-26T05:37:25;0.70;99.90
20881;DHT22;10600;53.096;8.802;2023-01-26T05:38:26;0.70;99.90
20881;DHT22;10600;53.096;8.802;2023-01-26T05:39:27;0.70;99.90
20881;DHT22;10600;53.096;8.802;2023-01-26T05:40:27;0.70;99.90
20881;DHT22;10600;53.096;8.802;2023-01-26T05:41:28;0.70;99.90
20881;DHT22;10600;53.096;8.802;2023-01-26T05:42:29;0.70;99.90
20881;DHT22;10600;53.096;8.802;2023-01-26T05:43:30;0.70;99.90
20881;DHT22;10600;53.096;8.802;2023-01-26T05:44:30;0.70;99.90
20881;DHT22;10600;53.096;8.802;2023-01-26T05:45:31;0.70;99.90
20881;DHT22;10600;53.096;8.802;2023-01-26T05:46:31;0.70;99.90
20881;DHT22;10600;53.096;8.802;2023-01-26T05:47:32;0.70;99.90
20881;DHT22;10600;53.096;8.802;2023-01-26T05:48:32;0.70;99.90
20881;DHT22;10600;53.096;8.802;2023-01-26T05:49:33;0.80;99.90
20881;DHT22;10600;53.096;8.802;2023-01-26T05:50:34;0.80;99.90
20881;DHT22;10600;53.096;8.802;2023-01-26T05:51:35;0.80;99.90
20881;DHT22;10600;53.096;8.802;2023-01-26T05:52:35;0.70;99.90
20881;DHT22;10600;53.096;8.802;2023-01-26T05:53:36;0.80;99.90
20881;DHT22;10600;53.096;8.802;2023-01-26T05:54:36;0.80;99.90
20881;DHT22;10600;53.096;8.802;2023-01-26T05:55:37;0.80;99.90
20881;DHT22;10600;53.096;8.802;2023-01-26T05:56:38;0.80;99.90
20881;DHT22;10600;53.096;8.802;2023-01-26T05:57:38;0.80;99.90
20881;DHT22;10600;53.096;8.802;2023-01-26T05:58:39;0.80;99.90
20881;DHT22;10600;53.096;8.802;2023-01-26T05:59:40;0.80;99.90
20881;DHT22;10600;53.096;8.802;2023-01-26T06:00:40;0.80;99.90
20881;DHT22;10600;53.096;8.802;2023-01-26T06:01:41;0.80;99.90
20881;DHT22;10600;53.096;8.802;2023-01-26T06:02:42;0.80;99.90
20881;DHT22;10600;53.096;8.802;2023-01-26T06:03:42;0.70;99.90
20881;DHT22;10600;53.096;8.802;2023-01-26T06:04:43;0.80;99.90
20881;DHT22;10600;53.096;8.802;2023-01-26T06:05:51;0.80;99.90
20881;DHT22;10600;53.096;8.802;2023-01-26T06:06:55;0.80;99.90
20881;DHT22;10600;53.096;8.802;2023-01-26T06:07:56;0.70;99.90
20881;DHT22;10600;53.096;8.802;2023-01-26T06:08:57;0.70;99.90
20881;DHT22;10600;53.096;8.802;2023-01-26T06:09:58;0.70;99.90
20881;DHT22;10600;53.096;8.802;2023-01-26T06:10:59;0.70;99.90
20881;DHT22;10600;53.096;8.802;2023-01-26T06:12:00;0.80;99.90
20881;DHT22;10600;53.096;8.802;2023-01-26T06:13:01;0.70;99.90
20881;DHT22;10600;53.096;8.802;2023-01-26T06:14:01;0.70;99.90
20881;DHT22;10600;53.096;8.802;2023-01-26T06:15:03;0.80;99.90
20881;DHT22;10600;53.096;8.802;2023-01-26T06:16:04;0.80;99.90
20881;DHT22;10600;53.096;8.802;2023-01-26T06:17:05;0.80;99.90
20881;DHT22;10600;53.096;8.802;2023-01-26T06:18:05;0.80;99.90
20881;DHT22;10600;53.096;8.802;2023-01-26T06:19:07;0.80;99.90
20881;DHT22;10600;53.096;8.802;2023-01-26T06:20:08;0.80;99.90
20881;DHT22;10600;53.096;8.802;2023-01-26T06:21:10;0.80;99.90
20881;DHT22;10600;53.096;8.802;2023-01-26T06:22:12;0.90;99.90
20881;DHT22;10600;53.096;8.802;2023-01-26T06:23:12;0.90;99.90
20881;DHT22;10600;53.096;8.802;2023-01-26T06:24:13;0.80;99.90
20881;DHT22;10600;53.096;8.802;2023-01-26T06:25:14;0.90;99.90
20881;DHT22;10600;53.096;8.802;2023-01-26T06:26:14;0.90;99.90
20881;DHT22;10600;53.096;8.802;2023-01-26T06:27:16;0.90;99.90
20881;DHT22;10600;53.096;8.802;2023-01-26T06:28:18;0.90;99.90
20881;DHT22;10600;53.096;8.802;2023-01-26T06:29:21;0.90;99.90
20881;DHT22;10600;53.096;8.802;2023-01-26T06:30:22;0.80;99.90
20881;DHT22;10600;53.096;8.802;2023-01-26T06:31:22;0.80;99.90
20881;DHT22;10600;53.096;8.802;2023-01-26T06:32:24;0.80;99.90
20881;DHT22;10600;53.096;8.802;2023-01-26T06:33:24;0.80;99.90
20881;DHT22;10600;53.096;8.802;2023-01-26T06:34:25;0.80;99.90
20881;DHT22;10600;53.096;8.802;2023-01-26T06:35:26;0.80;99.90
20881;DHT22;10600;53.096;8.802;2023-01-26T06:36:27;0.80;99.90
20881;DHT22;10600;53.096;8.802;2023-01-26T06:37:28;0.90;99.90
20881;DHT22;10600;53.096;8.802;2023-01-26T06:38:29;0.90;99.90
20881;DHT22;10600;53.096;8.802;2023-01-26T06:39:29;0.90;99.90
20881;DHT22;10600;53.096;8.802;2023-01-26T06:40:30;0.90;99.90
20881;DHT22;10600;53.096;8.802;2023-01-26T06:41:30;0.90;99.90
20881;DHT22;10600;53.096;8.802;2023-01-26T06:42:32;0.90;99.90
20881;DHT22;10600;53.096;8.802;2023-01-26T06:43:34;0.90;99.90
20881;DHT22;10600;53.096;8.802;2023-01-26T06:44:35;0.90;99.90
20881;DHT22;10600;53.096;8.802;2023-01-26T06:45:35;0.90;99.90
20881;DHT22;10600;53.096;8.802;2023-01-26T06:46:36;0.90;99.90
20881;DHT22;10600;53.096;8.802;2023-01-26T06:47:37;0.90;99.90
20881;DHT22;10600;53.096;8.802;2023-01-26T06:48:38;0.90;99.90
20881;DHT22;10600;53.096;8.802;2023-01-26T06:49:39;0.90;99.90
20881;DHT22;10600;53.096;8.802;2023-01-26T06:50:39;0.80;99.90
20881;DHT22;10600;53.096;8.802;2023-01-26T06:52:55;0.80;99.90
20881;DHT22;10600;53.096;8.802;2023-01-26T06:53:58;0.80;99.90
20881;DHT22;10600;53.096;8.802;2023-01-26T06:54:59;0.90;99.90